Time;durP1;ratioP1;P1;durP2;ratioP2;P2;SDS_P1;SDS_P2;PMS_P1;PMS_P2;Temp;Humidity;BMP_temperature;BMP_pressure;BME280_temperature;BME280_humidity;BME280_pressure;Samples;Min_cycle;Max_cycle;Signal;HPM_P1;HPM_P2
2021/12/03 00:01:48;;;;;;;3.78;3.10;;;3.10;79.50;;;;;;5047654;28;20029;-68
2021/12/03 00:04:14;;;;;;;2.97;2.67;;;3.10;79.70;;;;;;5045770;28;20026;-69
2021/12/03 00:06:39;;;;;;;3.05;2.75;;;3.10;79.70;;;;;;5047526;28;20435;-69
2021/12/03 00:09:07;;;;;;;3.92;2.45;;;3.10;79.80;;;;;;5046603;28;20044;-68
2021/12/03 00:11:33;;;;;;;3.72;2.85;;;3.10;79.90;;;;;;5041026;28;20155;-68
2021/12/03 00:13:59;;;;;;;4.05;2.67;;;3.00;79.90;;;;;;5044987;28;20033;-69
2021/12/03 00:16:25;;;;;;;4.15;2.60;;;3.00;79.90;;;;;;5047179;28;20040;-68
2021/12/03 00:18:51;;;;;;;4.45;2.40;;;3.00;80.00;;;;;;5047878;28;20086;-67
2021/12/03 00:21:17;;;;;;;2.78;2.40;;;3.00;80.00;;;;;;5047841;28;20045;-68
2021/12/03 00:23:43;;;;;;;3.20;2.63;;;3.00;80.10;;;;;;5045698;28;20061;-67
2021/12/03 00:26:09;;;;;;;2.92;2.47;;;3.00;80.10;;;;;;5042169;28;20053;-67
2021/12/03 00:28:36;;;;;;;3.78;2.88;;;3.00;80.00;;;;;;5047895;28;20032;-67
2021/12/03 00:31:03;;;;;;;2.90;2.60;;;3.00;79.90;;;;;;5049168;28;20044;-67
2021/12/03 00:33:30;;;;;;;4.75;2.70;;;3.00;79.80;;;;;;5046717;28;20407;-63
2021/12/03 00:35:56;;;;;;;3.97;2.70;;;3.00;79.70;;;;;;5046242;28;20041;-67
2021/12/03 00:38:22;;;;;;;3.63;2.75;;;3.00;79.70;;;;;;5039099;28;20029;-67
2021/12/03 00:40:48;;;;;;;3.70;2.70;;;3.00;79.60;;;;;;5040499;28;20040;-67
2021/12/03 00:43:14;;;;;;;2.97;2.70;;;3.00;79.50;;;;;;5044877;28;20037;-67
2021/12/03 00:45:42;;;;;;;5.63;2.80;;;3.00;79.50;;;;;;5045517;28;20087;-67
2021/12/03 00:48:08;;;;;;;3.75;3.10;;;3.00;79.50;;;;;;5038277;28;20041;-67
2021/12/03 00:50:34;;;;;;;4.28;3.13;;;2.90;79.50;;;;;;5042746;28;20083;-67
2021/12/03 00:53:01;;;;;;;4.70;3.20;;;3.00;79.60;;;;;;5043207;28;20025;-66
2021/12/03 00:55:32;;;;;;;3.50;3.20;;;2.90;79.50;;;;;;5044537;28;20597;-66
2021/12/03 00:57:58;;;;;;;4.93;3.25;;;2.90;79.50;;;;;;5047874;28;20032;-66
2021/12/03 01:00:26;;;;;;;3.10;2.80;;;2.90;79.50;;;;;;5047227;28;20572;-66
2021/12/03 01:02:54;;;;;;;4.25;3.30;;;2.90;79.50;;;;;;5043606;28;20159;-70
2021/12/03 01:05:22;;;;;;;5.38;2.80;;;2.90;79.60;;;;;;5047412;28;20116;-67
2021/12/03 01:07:47;;;;;;;4.82;3.25;;;2.90;79.70;;;;;;5046091;28;20057;-66
2021/12/03 01:10:14;;;;;;;4.00;3.10;;;2.90;79.60;;;;;;5039436;28;21011;-68
2021/12/03 01:12:40;;;;;;;3.92;3.13;;;2.90;79.40;;;;;;5035605;28;20029;-67
2021/12/03 01:15:08;;;;;;;4.00;3.00;;;2.90;79.50;;;;;;5031035;28;20033;-67
2021/12/03 01:17:34;;;;;;;4.10;2.97;;;2.90;79.50;;;;;;5040135;28;20033;-67
2021/12/03 01:20:04;;;;;;;2.97;2.70;;;2.90;79.50;;;;;;5042547;28;20043;-67
2021/12/03 01:22:30;;;;;;;4.10;3.50;;;2.80;79.30;;;;;;5039842;28;20033;-67
2021/12/03 01:24:56;;;;;;;7.30;3.28;;;2.80;79.30;;;;;;5040070;28;20127;-67
2021/12/03 01:27:21;;;;;;;3.78;3.17;;;2.80;79.10;;;;;;5036321;28;20094;-67
2021/12/03 01:29:47;;;;;;;3.83;2.90;;;2.70;79.20;;;;;;5038314;28;20025;-67
2021/12/03 01:32:13;;;;;;;3.70;3.28;;;2.60;79.40;;;;;;5037692;28;20096;-66
2021/12/03 01:34:38;;;;;;;5.07;3.45;;;2.60;79.70;;;;;;5041154;28;20544;-66
2021/12/03 01:37:04;;;;;;;4.93;3.55;;;2.60;79.90;;;;;;5034971;28;20733;-67
2021/12/03 01:39:30;;;;;;;3.90;3.42;;;2.50;79.90;;;;;;5044138;28;20076;-67
2021/12/03 01:41:55;;;;;;;3.97;3.50;;;2.50;80.00;;;;;;5036713;28;20107;-66
2021/12/03 01:44:21;;;;;;;5.43;3.60;;;2.50;80.00;;;;;;5041151;28;20690;-67
2021/12/03 01:46:47;;;;;;;4.20;3.05;;;2.50;79.90;;;;;;5039241;28;20508;-67
2021/12/03 01:49:14;;;;;;;4.90;3.30;;;2.40;79.90;;;;;;5036184;28;20159;-65
2021/12/03 01:51:41;;;;;;;4.85;3.78;;;2.40;80.00;;;;;;5039436;28;20078;-67
2021/12/03 01:54:07;;;;;;;4.63;3.60;;;2.50;80.00;;;;;;5041240;28;20040;-67
2021/12/03 01:56:32;;;;;;;6.80;4.25;;;2.40;80.00;;;;;;5039789;28;20033;-66
2021/12/03 01:58:58;;;;;;;6.75;4.10;;;2.40;80.00;;;;;;5039971;28;20029;-67
2021/12/03 02:01:27;;;;;;;5.15;3.40;;;2.40;80.00;;;;;;5037359;28;20524;-66
2021/12/03 02:03:56;;;;;;;4.55;3.55;;;2.40;80.00;;;;;;5040531;28;20179;-66
2021/12/03 02:06:24;;;;;;;4.45;3.30;;;2.60;80.20;;;;;;5042109;28;20594;-66
2021/12/03 02:08:50;;;;;;;4.38;3.38;;;2.50;80.10;;;;;;5039641;28;20044;-66
2021/12/03 02:11:17;;;;;;;4.63;3.28;;;2.50;80.00;;;;;;5032948;28;20675;-67
2021/12/03 02:13:43;;;;;;;5.10;3.50;;;2.60;80.00;;;;;;5039748;28;20056;-66
2021/12/03 02:16:10;;;;;;;4.45;3.20;;;2.60;79.90;;;;;;5040110;28;20542;-66
2021/12/03 02:18:37;;;;;;;4.35;3.17;;;2.60;79.90;;;;;;5037246;28;20060;-65
2021/12/03 02:21:05;;;;;;;4.75;3.60;;;2.60;79.80;;;;;;5040850;28;20562;-67
2021/12/03 02:23:32;;;;;;;5.40;3.10;;;2.70;79.60;;;;;;5039637;28;20055;-66
2021/12/03 02:25:58;;;;;;;3.25;2.95;;;2.70;79.50;;;;;;5039739;28;20029;-66
2021/12/03 02:28:26;;;;;;;3.75;3.25;;;2.70;79.40;;;;;;5037913;28;20029;-67
2021/12/03 02:30:53;;;;;;;5.95;3.60;;;2.70;79.30;;;;;;5036923;28;20083;-66
2021/12/03 02:33:19;;;;;;;3.50;3.20;;;2.70;79.20;;;;;;5038887;28;20622;-66
2021/12/03 02:35:46;;;;;;;3.60;3.30;;;2.60;80.00;;;;;;5037688;28;20068;-66
2021/12/03 02:38:14;;;;;;;4.05;3.38;;;2.60;79.00;;;;;;5039708;28;20040;-66
2021/12/03 02:40:41;;;;;;;5.18;3.60;;;2.60;78.90;;;;;;5037778;28;20519;-66
2021/12/03 02:43:07;;;;;;;4.80;3.65;;;2.60;78.90;;;;;;5035731;28;20696;-66
2021/12/03 02:45:33;;;;;;;5.15;3.22;;;2.70;79.00;;;;;;5043142;28;20124;-66
2021/12/03 02:48:00;;;;;;;3.83;3.25;;;2.70;79.00;;;;;;5037158;28;20037;-66
2021/12/03 02:50:26;;;;;;;5.10;3.30;;;2.70;78.80;;;;;;5039479;28;20067;-67
2021/12/03 02:52:53;;;;;;;4.45;3.13;;;2.70;78.80;;;;;;5039998;28;20036;-66
2021/12/03 02:55:19;;;;;;;5.10;3.50;;;2.60;78.80;;;;;;5043882;28;20054;-66
2021/12/03 02:57:45;;;;;;;5.75;3.72;;;2.70;78.60;;;;;;5039886;28;20190;-67
2021/12/03 03:00:14;;;;;;;3.80;3.30;;;2.60;78.60;;;;;;5037327;28;20126;-66
2021/12/03 03:02:41;;;;;;;3.97;3.55;;;2.60;78.60;;;;;;5037813;28;20033;-67
2021/12/03 03:05:08;;;;;;;5.15;3.80;;;2.60;78.60;;;;;;5038014;28;20124;-65
2021/12/03 03:07:34;;;;;;;4.40;3.20;;;2.60;78.80;;;;;;5038488;28;20424;-66
2021/12/03 03:10:00;;;;;;;5.15;3.50;;;2.60;79.30;;;;;;5035180;28;20033;-66
2021/12/03 03:12:26;;;;;;;4.65;3.55;;;2.60;79.00;;;;;;5037222;28;20484;-66
2021/12/03 03:14:57;;;;;;;4.93;3.40;;;2.70;79.20;;;;;;5041143;28;20443;-66
2021/12/03 03:17:24;;;;;;;4.43;3.50;;;2.60;79.20;;;;;;5038750;28;20049;-66
2021/12/03 03:19:50;;;;;;;6.78;4.00;;;2.60;79.30;;;;;;5035933;28;20035;-67
2021/12/03 03:22:16;;;;;;;4.80;3.70;;;2.60;79.50;;;;;;5041275;28;20037;-66
2021/12/03 03:24:43;;;;;;;4.50;3.53;;;2.60;79.50;;;;;;5044471;28;20104;-67
2021/12/03 03:27:08;;;;;;;3.83;3.22;;;2.60;79.50;;;;;;5038108;28;20041;-67
2021/12/03 03:29:34;;;;;;;5.32;3.67;;;2.70;79.70;;;;;;5043093;28;20464;-66
2021/12/03 03:32:00;;;;;;;4.40;3.80;;;2.70;79.70;;;;;;5042978;28;20068;-67
2021/12/03 03:34:26;;;;;;;5.70;3.58;;;2.70;79.70;;;;;;5043365;28;20033;-67
2021/12/03 03:36:52;;;;;;;3.88;3.20;;;2.70;79.70;;;;;;5040301;28;20400;-66
2021/12/03 03:39:20;;;;;;;5.50;3.72;;;2.70;79.70;;;;;;5046966;28;20036;-66
2021/12/03 03:41:46;;;;;;;5.70;3.40;;;2.70;79.50;;;;;;5040947;28;20036;-67
2021/12/03 03:44:15;;;;;;;4.22;3.35;;;2.80;79.60;;;;;;5045398;28;20045;-67
2021/12/03 03:46:41;;;;;;;5.00;3.53;;;2.80;80.30;;;;;;5039985;28;20025;-66
2021/12/03 03:49:07;;;;;;;4.68;3.60;;;2.70;79.30;;;;;;5041934;28;20063;-66
2021/12/03 03:51:33;;;;;;;4.03;3.42;;;2.70;79.30;;;;;;5042875;28;20044;-66
2021/12/03 03:53:59;;;;;;;4.25;3.47;;;2.80;79.30;;;;;;5040480;28;20041;-66
2021/12/03 03:56:25;;;;;;;4.25;3.30;;;2.70;79.30;;;;;;5043558;28;20032;-65
2021/12/03 03:58:51;;;;;;;4.60;3.28;;;2.80;79.40;;;;;;5040931;28;20487;-66
2021/12/03 04:01:17;;;;;;;4.82;3.55;;;2.70;79.40;;;;;;5039528;28;20037;-67
2021/12/03 04:03:46;;;;;;;6.07;3.45;;;2.70;79.40;;;;;;5044089;28;20036;-67
2021/12/03 04:06:14;;;;;;;4.53;3.45;;;2.70;79.40;;;;;;5038997;28;20033;-66
2021/12/03 04:08:40;;;;;;;5.75;3.75;;;2.70;79.50;;;;;;5041314;28;20087;-66
2021/12/03 04:11:06;;;;;;;4.47;3.70;;;2.70;80.40;;;;;;5039704;28;20116;-66
2021/12/03 04:13:32;;;;;;;4.20;3.75;;;2.70;79.70;;;;;;5041092;28;20116;-66
2021/12/03 04:15:57;;;;;;;5.80;3.55;;;2.70;79.90;;;;;;5041013;28;20036;-67
2021/12/03 04:18:23;;;;;;;4.78;3.75;;;2.70;79.70;;;;;;5040414;28;20044;-65
2021/12/03 04:20:49;;;;;;;8.88;3.70;;;2.60;80.40;;;;;;5045052;28;20522;-66
2021/12/03 04:23:18;;;;;;;3.88;3.47;;;2.60;79.50;;;;;;5039027;28;20059;-67
2021/12/03 04:25:44;;;;;;;7.55;3.80;;;2.70;79.50;;;;;;5044421;28;20033;-66
2021/12/03 04:28:10;;;;;;;5.05;3.58;;;2.60;79.50;;;;;;5043163;28;20061;-67
2021/12/03 04:30:36;;;;;;;4.85;3.88;;;2.60;79.60;;;;;;5041925;28;20055;-66
2021/12/03 04:33:02;;;;;;;6.75;3.90;;;2.60;79.60;;;;;;5039233;28;20029;-66
2021/12/03 04:35:28;;;;;;;4.88;3.60;;;2.60;79.70;;;;;;5040512;28;20041;-66
2021/12/03 04:37:54;;;;;;;4.18;3.60;;;2.70;79.60;;;;;;5053449;28;20053;-67
2021/12/03 04:40:22;;;;;;;4.80;3.38;;;2.60;79.30;;;;;;5040915;28;20123;-67
2021/12/03 04:42:48;;;;;;;4.53;3.30;;;2.60;79.30;;;;;;5042346;28;20056;-66
2021/12/03 04:45:19;;;;;;;3.50;3.20;;;2.60;79.30;;;;;;5045925;28;20029;-67
2021/12/03 04:47:45;;;;;;;22.30;10.30;;;2.60;79.30;;;;;;5037498;28;20041;-67
2021/12/03 04:50:12;;;;;;;12.30;7.03;;;2.60;79.20;;;;;;5039989;28;20031;-67
2021/12/03 04:52:38;;;;;;;10.18;5.45;;;2.60;79.00;;;;;;5039485;28;20068;-67
2021/12/03 04:55:05;;;;;;;5.28;3.83;;;2.60;78.80;;;;;;5044729;28;20120;-67
2021/12/03 04:57:31;;;;;;;4.50;3.63;;;2.60;78.80;;;;;;5041599;28;20143;-67
2021/12/03 04:59:57;;;;;;;4.70;3.45;;;2.50;78.60;;;;;;5043599;28;20037;-67
2021/12/03 05:02:24;;;;;;;4.97;3.60;;;2.50;78.50;;;;;;5044294;28;20596;-67
2021/12/03 05:04:52;;;;;;;4.13;3.50;;;2.40;78.40;;;;;;5039720;28;20027;-67
2021/12/03 05:07:42;;;;;;;3.95;3.55;;;2.40;78.40;;;;;;5041218;28;20029;-66
2021/12/03 05:10:09;;;;;;;5.10;3.95;;;2.30;78.40;;;;;;5037753;28;20044;-65
2021/12/03 05:12:36;;;;;;;5.07;3.58;;;2.30;78.40;;;;;;5035408;28;20492;-67
2021/12/03 05:15:02;;;;;;;4.28;3.58;;;2.20;78.30;;;;;;5042316;28;20025;-67
2021/12/03 05:17:28;;;;;;;4.88;4.38;;;2.20;78.30;;;;;;5040057;28;20041;-66
2021/12/03 05:19:54;;;;;;;5.03;3.58;;;2.20;78.40;;;;;;5040679;28;20033;-66
2021/12/03 05:22:20;;;;;;;4.80;3.58;;;2.10;78.50;;;;;;5041229;28;20036;-66
2021/12/03 05:24:46;;;;;;;4.55;3.35;;;2.10;79.30;;;;;;5042094;28;20032;-66
2021/12/03 05:27:16;;;;;;;6.30;3.60;;;2.00;78.40;;;;;;5040649;28;20459;-67
2021/12/03 05:29:44;;;;;;;4.90;3.45;;;2.10;78.30;;;;;;5042012;28;20075;-67
2021/12/03 05:32:11;;;;;;;4.82;3.63;;;2.00;78.30;;;;;;5038222;28;20578;-67
2021/12/03 05:34:38;;;;;;;7.10;3.70;;;2.00;78.50;;;;;;5038570;28;20072;-66
2021/12/03 05:37:06;;;;;;;6.45;3.60;;;2.00;78.40;;;;;;5039254;28;20665;-67
2021/12/03 05:39:35;;;;;;;5.90;4.03;;;2.00;78.60;;;;;;5040396;28;20037;-67
2021/12/03 05:42:01;;;;;;;4.90;3.70;;;1.90;78.60;;;;;;5041770;28;20029;-66
2021/12/03 05:44:29;;;;;;;6.05;4.30;;;1.90;78.60;;;;;;5043355;28;20040;-64
2021/12/03 05:46:56;;;;;;;5.82;4.18;;;1.90;78.80;;;;;;5038784;28;20033;-67
2021/12/03 05:49:21;;;;;;;4.95;4.07;;;1.90;78.90;;;;;;5039876;28;20039;-66
2021/12/03 05:51:47;;;;;;;6.32;4.10;;;1.90;79.00;;;;;;5041144;28;20045;-66
2021/12/03 05:54:12;;;;;;;7.30;4.72;;;1.90;79.00;;;;;;5040694;28;20031;-66
2021/12/03 05:56:38;;;;;;;7.72;4.50;;;1.90;79.00;;;;;;5041656;28;20029;-67
2021/12/03 05:59:04;;;;;;;6.95;4.35;;;1.90;79.90;;;;;;5037451;28;20440;-66
2021/12/03 06:01:29;;;;;;;6.40;4.15;;;1.90;78.80;;;;;;5037595;28;20508;-66
2021/12/03 06:03:55;;;;;;;6.00;4.40;;;1.90;78.80;;;;;;5041080;28;20041;-66
2021/12/03 06:06:21;;;;;;;6.45;4.57;;;1.90;78.90;;;;;;5041057;28;20110;-67
2021/12/03 06:08:47;;;;;;;5.40;3.92;;;2.00;79.00;;;;;;5035788;28;20049;-67
2021/12/03 06:11:13;;;;;;;6.10;4.55;;;2.00;78.90;;;;;;5033743;28;20042;-67
2021/12/03 06:13:39;;;;;;;8.23;5.20;;;2.00;78.80;;;;;;5042258;28;20388;-65
2021/12/03 06:16:10;;;;;;;8.50;4.60;;;2.00;78.70;;;;;;5041376;28;20061;-67
2021/12/03 06:18:37;;;;;;;7.22;4.72;;;2.00;78.60;;;;;;5042125;28;20032;-66
2021/12/03 06:21:05;;;;;;;8.55;5.63;;;2.10;78.50;;;;;;5037418;28;20059;-66
2021/12/03 06:23:32;;;;;;;11.30;7.07;;;2.00;78.20;;;;;;5042427;28;20480;-67
2021/12/03 06:25:58;;;;;;;10.18;7.38;;;2.00;78.00;;;;;;5039258;28;20029;-67
2021/12/03 06:28:26;;;;;;;11.30;6.30;;;2.00;77.80;;;;;;5040382;28;20051;-66
2021/12/03 06:30:52;;;;;;;8.90;5.80;;;2.00;77.50;;;;;;5040221;28;20029;-65
2021/12/03 06:33:19;;;;;;;7.85;5.00;;;1.90;77.40;;;;;;5029159;28;20504;-67
2021/12/03 06:35:48;;;;;;;9.38;5.90;;;1.90;77.30;;;;;;5032661;28;20039;-66
2021/12/03 06:38:15;;;;;;;10.85;6.63;;;1.90;77.30;;;;;;5034638;28;20041;-66
2021/12/03 06:40:42;;;;;;;13.32;7.32;;;1.80;77.10;;;;;;5036833;28;20044;-64
2021/12/03 06:43:07;;;;;;;11.13;6.78;;;1.80;77.10;;;;;;5041105;28;20043;-66
2021/12/03 06:45:33;;;;;;;11.30;6.30;;;1.70;77.10;;;;;;5039130;28;20037;-63
2021/12/03 06:47:59;;;;;;;8.20;5.55;;;1.70;77.30;;;;;;5042016;28;20037;-66
2021/12/03 06:50:25;;;;;;;8.30;5.70;;;1.70;77.30;;;;;;5042274;28;20505;-66
2021/12/03 06:53:02;;;;;;;9.27;5.63;;;1.60;77.30;;;;;;5037215;28;20025;-66
2021/12/03 06:55:28;;;;;;;8.30;5.32;;;1.60;77.40;;;;;;5041397;28;20037;-65
2021/12/03 06:57:55;;;;;;;8.95;5.20;;;1.60;77.40;;;;;;5043881;28;20049;-67
2021/12/03 07:00:22;;;;;;;7.57;5.38;;;1.50;77.50;;;;;;5043992;28;20097;-67
2021/12/03 07:02:48;;;;;;;8.23;5.30;;;1.50;77.50;;;;;;5033514;28;20045;-67
2021/12/03 07:05:14;;;;;;;7.80;5.38;;;1.50;77.60;;;;;;5036244;28;20091;-66
2021/12/03 07:07:41;;;;;;;7.57;5.40;;;1.50;77.50;;;;;;5034380;28;20030;-66
2021/12/03 07:10:07;;;;;;;8.80;5.57;;;1.50;77.40;;;;;;5033502;28;20060;-66
2021/12/03 07:12:33;;;;;;;6.55;4.72;;;1.50;77.50;;;;;;5029701;28;20040;-67
2021/12/03 07:15:00;;;;;;;7.97;5.32;;;1.40;77.40;;;;;;5033974;28;20029;-66
2021/12/03 07:17:30;;;;;;;7.05;5.03;;;1.40;77.60;;;;;;5044540;28;20123;-66
2021/12/03 07:19:57;;;;;;;7.70;5.30;;;1.40;77.80;;;;;;5041523;28;20057;-65
2021/12/03 07:22:23;;;;;;;7.68;5.28;;;1.40;77.90;;;;;;5038468;28;20033;-66
2021/12/03 07:24:49;;;;;;;7.47;5.32;;;1.40;77.80;;;;;;5041097;28;20042;-67
2021/12/03 07:27:15;;;;;;;8.48;5.15;;;1.40;77.80;;;;;;5036453;28;20036;-65
2021/12/03 07:29:46;;;;;;;9.15;5.80;;;1.40;77.80;;;;;;5036796;28;20095;-66
2021/12/03 07:32:12;;;;;;;9.18;5.70;;;1.40;77.80;;;;;;5033843;28;20033;-66
2021/12/03 07:34:38;;;;;;;11.63;6.75;;;1.40;77.90;;;;;;5036294;28;20041;-66
2021/12/03 07:37:04;;;;;;;13.10;6.85;;;1.40;78.10;;;;;;5033936;28;20485;-66
2021/12/03 07:39:29;;;;;;;11.70;6.80;;;1.40;78.20;;;;;;5032286;28;20083;-66
2021/12/03 07:41:55;;;;;;;12.38;7.50;;;1.30;78.40;;;;;;5034927;28;20052;-67
2021/12/03 07:44:20;;;;;;;12.32;7.05;;;1.30;78.60;;;;;;5037946;28;20045;-66
2021/12/03 07:46:46;;;;;;;10.65;6.68;;;1.30;78.80;;;;;;5018398;28;20086;-65
2021/12/03 07:49:12;;;;;;;11.75;6.80;;;1.40;79.10;;;;;;5013361;28;20512;-67
2021/12/03 07:51:37;;;;;;;11.05;7.53;;;1.40;79.20;;;;;;5019015;28;20515;-67
2021/12/03 07:54:03;;;;;;;13.68;7.43;;;1.40;79.30;;;;;;5017755;28;20132;-67
2021/12/03 07:56:29;;;;;;;15.70;7.63;;;1.50;79.50;;;;;;5016462;28;20835;-67
2021/12/03 07:58:54;;;;;;;11.45;8.05;;;1.50;79.50;;;;;;5017089;28;20118;-67
2021/12/03 08:01:20;;;;;;;10.27;7.20;;;1.60;79.50;;;;;;5013402;28;20044;-65
2021/12/03 08:03:45;;;;;;;11.73;7.45;;;1.60;79.30;;;;;;5017371;28;20043;-64
2021/12/03 08:06:13;;;;;;;11.23;7.70;;;1.60;79.30;;;;;;5025398;28;20037;-66
2021/12/03 08:08:39;;;;;;;12.18;7.10;;;1.70;79.20;;;;;;5016936;28;21258;-67
2021/12/03 08:11:05;;;;;;;9.90;6.90;;;1.70;79.20;;;;;;5020577;28;20465;-66
2021/12/03 08:13:31;;;;;;;9.63;7.10;;;1.70;79.00;;;;;;5018762;28;20247;-65
2021/12/03 08:15:57;;;;;;;11.20;7.30;;;1.80;79.00;;;;;;5021842;28;20474;-67
2021/12/03 08:18:22;;;;;;;9.65;7.00;;;1.80;79.00;;;;;;5020577;28;20045;-64
2021/12/03 08:20:48;;;;;;;12.43;7.40;;;1.80;78.90;;;;;;5024506;28;20032;-65
2021/12/03 08:23:14;;;;;;;12.63;8.07;;;1.80;78.80;;;;;;5024085;28;20505;-66
2021/12/03 08:25:39;;;;;;;10.60;7.15;;;1.80;78.90;;;;;;5022189;28;20040;-64
2021/12/03 08:28:05;;;;;;;12.38;7.45;;;1.80;79.70;;;;;;5017443;28;20471;-66
2021/12/03 08:30:31;;;;;;;12.65;7.78;;;1.90;79.00;;;;;;5022129;28;20752;-66
2021/12/03 08:32:58;;;;;;;11.30;8.00;;;1.90;78.90;;;;;;5020514;28;20037;-66
2021/12/03 08:35:24;;;;;;;9.90;7.18;;;1.90;78.70;;;;;;5020249;28;20048;-64
2021/12/03 08:37:50;;;;;;;9.77;7.10;;;1.90;78.80;;;;;;5023774;28;20029;-65
2021/12/03 08:40:17;;;;;;;11.10;7.15;;;2.00;78.80;;;;;;5020957;28;20045;-66
2021/12/03 08:42:43;;;;;;;12.73;7.15;;;2.00;78.80;;;;;;5024907;28;20578;-67
2021/12/03 08:45:09;;;;;;;14.15;8.48;;;2.00;78.80;;;;;;5036071;28;20041;-67
2021/12/03 08:47:36;;;;;;;18.60;9.32;;;2.10;79.00;;;;;;5039320;28;20033;-66
2021/12/03 08:50:08;;;;;;;14.90;8.40;;;2.10;78.90;;;;;;5040976;28;20037;-65
2021/12/03 08:55:14;;;;;;;13.75;8.48;;;2.10;79.00;;;;;;5039724;28;20047;-66
2021/12/03 08:57:40;;;;;;;16.23;9.63;;;2.10;79.00;;;;;;5039191;28;20041;-66
2021/12/03 09:00:12;;;;;;;15.98;9.75;;;2.10;79.10;;;;;;5039511;28;20045;-63
2021/12/03 09:02:38;;;;;;;16.88;10.13;;;2.20;79.30;;;;;;5034956;28;20033;-66
2021/12/03 09:05:04;;;;;;;16.27;10.05;;;2.10;79.30;;;;;;5046058;28;20043;-67
2021/12/03 09:07:30;;;;;;;16.90;9.68;;;2.10;79.40;;;;;;5040881;28;20524;-66
2021/12/03 09:09:56;;;;;;;16.48;9.95;;;2.10;79.60;;;;;;5045974;28;20120;-66
2021/12/03 09:12:21;;;;;;;16.23;10.02;;;2.20;79.90;;;;;;5038639;28;20036;-66
2021/12/03 09:14:54;;;;;;;14.75;9.48;;;2.10;79.80;;;;;;5045441;28;20047;-66
2021/12/03 09:25:18;;;;;;;17.92;9.82;;;2.30;80.00;;;;;;5043551;28;20037;-66
2021/12/03 09:27:44;;;;;;;14.85;9.32;;;2.30;80.00;;;;;;5035200;28;20036;-66
2021/12/03 09:30:13;;;;;;;15.77;10.20;;;2.40;80.20;;;;;;5042705;28;20064;-67
2021/12/03 09:32:42;;;;;;;15.30;8.80;;;2.40;80.20;;;;;;5039699;28;20032;-66
2021/12/03 09:35:09;;;;;;;15.38;8.65;;;2.40;80.20;;;;;;5041648;28;20098;-66
2021/12/03 09:37:35;;;;;;;13.77;8.70;;;2.50;80.20;;;;;;5039854;28;20021;-65
2021/12/03 09:40:06;;;;;;;12.73;7.88;;;2.50;80.20;;;;;;5044584;28;20029;-66
2021/12/03 09:42:38;;;;;;;11.57;7.82;;;2.60;80.10;;;;;;5041219;28;20116;-66
2021/12/03 09:45:05;;;;;;;11.88;7.85;;;2.60;80.00;;;;;;5041637;28;20703;-65
2021/12/03 09:47:31;;;;;;;11.32;6.97;;;2.70;80.00;;;;;;5043078;28;20037;-66
2021/12/03 09:49:58;;;;;;;10.43;7.38;;;2.70;79.70;;;;;;5035956;28;20526;-66
2021/12/03 09:54:59;;;;;;;10.75;7.32;;;2.80;79.50;;;;;;5044831;28;20041;-67
2021/12/03 10:17:18;;;;;;;8.45;5.88;;;2.90;79.00;;;;;;5042701;28;20108;-66
2021/12/03 10:20:11;;;;;;;8.57;6.00;;;3.00;79.10;;;;;;5041254;28;20036;-66
2021/12/03 10:25:31;;;;;;;7.50;5.40;;;3.10;78.80;;;;;;5041763;28;20040;-66
2021/12/03 10:47:05;;;;;;;7.47;4.95;;;3.40;77.00;;;;;;5036711;28;20037;-67
2021/12/03 10:57:43;;;;;;;;;;;3.60;76.40;;;;;;5046634;28;20068;-66
2021/12/03 11:12:42;;;;;;;8.18;5.57;;;3.80;75.70;;;;;;5037844;28;20037;-66
2021/12/03 11:21:42;;;;;;;6.60;4.80;;;3.90;76.00;;;;;;5043385;28;20089;-67
2021/12/03 11:31:45;;;;;;;8.32;4.65;;;4.10;75.90;;;;;;5046708;28;20041;-67
2021/12/03 13:08:06;;;;;;;5.63;3.38;;;4.60;72.40;;;;;;5044484;28;20029;-66
2021/12/03 13:26:46;;;;;;;5.40;3.25;;;4.20;71.70;;;;;;5034956;28;20030;-66
2021/12/03 14:57:10;;;;;;;7.10;4.43;;;3.60;73.20;;;;;;5036923;28;20090;-66
2021/12/03 14:59:39;;;;;;;8.40;4.47;;;3.60;73.30;;;;;;5038160;28;20570;-64
2021/12/03 15:02:25;;;;;;;6.22;4.25;;;3.60;73.60;;;;;;5039070;28;20144;-67
2021/12/03 15:05:08;;;;;;;6.38;3.88;;;3.60;73.70;;;;;;5038180;28;20037;-66
2021/12/03 15:07:44;;;;;;;7.78;4.03;;;3.60;73.60;;;;;;5036919;28;20361;-67
2021/12/03 15:10:18;;;;;;;5.65;3.75;;;3.60;73.50;;;;;;5037698;28;20515;-67
2021/12/03 15:31:45;;;;;;;6.32;4.22;;;3.40;73.80;;;;;;5040577;28;20041;-66
2021/12/03 15:53:32;;;;;;;8.23;5.03;;;3.30;74.20;;;;;;5005846;28;20029;-66
2021/12/03 15:58:44;;;;;;;7.85;5.53;;;3.20;74.20;;;;;;5030221;28;20033;-66
2021/12/03 16:06:34;;;;;;;7.32;5.53;;;3.20;74.30;;;;;;5040405;28;20029;-68
2021/12/03 16:09:39;;;;;;;7.85;5.63;;;3.20;74.30;;;;;;5039280;28;20548;-66
2021/12/03 16:12:32;;;;;;;9.32;7.00;;;3.10;74.30;;;;;;5039999;28;20081;-65
2021/12/03 16:17:17;;;;;;;11.88;6.40;;;3.10;74.50;;;;;;5037371;28;20501;-66
2021/12/03 16:43:57;;;;;;;9.33;5.13;;;3.00;75.00;;;;;;5034865;28;20040;-67
2021/12/03 16:46:46;;;;;;;8.88;6.50;;;2.90;75.00;;;;;;5035263;28;20322;-65
2021/12/03 16:51:44;;;;;;;9.57;7.05;;;2.90;75.10;;;;;;5037009;28;20041;-66
2021/12/03 16:54:11;;;;;;;11.40;7.43;;;2.90;75.20;;;;;;5035229;28;20158;-66
2021/12/03 16:56:47;;;;;;;9.50;6.88;;;2.80;75.20;;;;;;5035033;28;20029;-66
2021/12/03 16:59:14;;;;;;;9.90;6.40;;;2.90;75.40;;;;;;5032741;28;20127;-66
2021/12/03 17:08:21;;;;;;;9.32;7.03;;;2.80;75.50;;;;;;5033756;28;20037;-66
2021/12/03 17:12:51;;;;;;;16.05;11.95;;;2.80;75.50;;;;;;5033691;28;20044;-66
2021/12/03 17:47:35;;;;;;;7.78;5.70;;;2.70;75.60;;;;;;5033933;28;20035;-66
2021/12/03 17:55:59;;;;;;;10.07;6.60;;;2.70;75.60;;;;;;5038503;28;20098;-67
2021/12/03 18:01:02;;;;;;;11.85;7.05;;;2.70;75.40;;;;;;5039969;28;20033;-67
2021/12/03 18:14:33;;;;;;;9.82;6.55;;;2.60;75.30;;;;;;5037625;28;20034;-67
2021/12/03 18:52:01;;;;;;;15.73;10.43;;;2.40;75.50;;;;;;5038440;28;20060;-66
2021/12/03 18:54:34;;;;;;;14.20;8.93;;;2.40;75.40;;;;;;5035855;28;20151;-66
2021/12/03 19:00:02;;;;;;;7.18;5.28;;;2.30;75.20;;;;;;5033345;28;20036;-66
2021/12/03 19:02:29;;;;;;;8.85;6.13;;;2.30;75.20;;;;;;5037348;28;22654;-66
2021/12/03 19:05:12;;;;;;;7.75;5.85;;;2.30;75.20;;;;;;5037760;28;20045;-66
2021/12/03 19:07:46;;;;;;;8.68;6.07;;;2.30;75.20;;;;;;5035346;28;20033;-67
2021/12/03 19:10:33;;;;;;;7.75;5.63;;;2.30;75.20;;;;;;5043812;28;20051;-67
2021/12/03 19:13:11;;;;;;;8.18;5.40;;;2.30;75.20;;;;;;5036304;28;20532;-65
2021/12/03 19:15:40;;;;;;;9.50;5.47;;;2.30;75.10;;;;;;5037710;28;20098;-67
2021/12/03 19:18:06;;;;;;;9.45;6.22;;;2.30;75.10;;;;;;5043134;28;20135;-67
2021/12/03 19:20:36;;;;;;;7.82;5.72;;;2.30;75.00;;;;;;5036874;28;20124;-66
2021/12/03 19:23:02;;;;;;;10.48;6.55;;;2.30;75.00;;;;;;5038518;28;20115;-67
2021/12/03 19:25:28;;;;;;;9.90;5.40;;;2.30;75.00;;;;;;5037377;28;20227;-67
2021/12/03 19:27:54;;;;;;;8.13;5.50;;;2.30;74.90;;;;;;5039248;28;20503;-66
2021/12/03 19:30:20;;;;;;;11.70;6.47;;;2.30;74.80;;;;;;5037836;28;20033;-67
2021/12/03 19:32:46;;;;;;;9.05;6.68;;;2.30;74.80;;;;;;5038829;28;20132;-66
2021/12/03 19:35:12;;;;;;;8.10;5.47;;;2.30;74.80;;;;;;5037852;28;20120;-66
2021/12/03 19:37:38;;;;;;;11.65;7.28;;;2.30;74.60;;;;;;5037361;28;20033;-66
2021/12/03 19:40:08;;;;;;;6.93;5.28;;;2.30;74.60;;;;;;5037563;28;20068;-66
2021/12/03 19:43:19;;;;;;;9.98;6.63;;;2.30;74.50;;;;;;5039493;28;20044;-66
2021/12/03 19:45:27;;;;;;;10.20;7.03;;;2.30;74.60;;;;;;5033340;28;20508;-65
2021/12/03 19:50:34;;;;;;;8.77;6.22;;;2.30;74.60;;;;;;5038535;28;20037;-66
2021/12/03 19:53:13;;;;;;;9.32;5.95;;;2.30;74.60;;;;;;5037356;28;20037;-66
2021/12/03 19:55:41;;;;;;;8.50;5.55;;;2.30;74.60;;;;;;5038940;28;20025;-68
2021/12/03 19:58:09;;;;;;;7.05;5.45;;;2.30;74.60;;;;;;5036103;28;20124;-66
2021/12/03 20:00:36;;;;;;;8.55;6.00;;;2.30;74.70;;;;;;5036791;28;20038;-66
2021/12/03 20:03:03;;;;;;;7.72;5.63;;;2.30;74.70;;;;;;5038653;28;20071;-68
2021/12/03 20:05:28;;;;;;;9.25;5.85;;;2.20;74.60;;;;;;5036321;28;20034;-68
2021/12/03 20:07:56;;;;;;;7.65;5.20;;;2.20;74.80;;;;;;5037769;28;20042;-66
2021/12/03 20:10:24;;;;;;;7.97;5.80;;;2.20;74.80;;;;;;5039063;28;20034;-68
2021/12/03 20:12:51;;;;;;;7.65;4.97;;;2.20;74.90;;;;;;5041639;28;20041;-66
2021/12/03 20:15:23;;;;;;;8.93;6.00;;;2.20;75.70;;;;;;5041230;28;20098;-68
2021/12/03 20:20:23;;;;;;;11.73;7.22;;;2.20;74.90;;;;;;5040952;28;20397;-69
2021/12/03 20:22:56;;;;;;;14.73;7.90;;;2.20;74.90;;;;;;5041201;28;20126;-68
2021/12/03 20:28:03;;;;;;;8.52;5.75;;;2.20;75.00;;;;;;5041901;28;20538;-68
2021/12/03 20:31:06;;;;;;;8.20;5.50;;;2.20;75.00;;;;;;5041142;28;20029;-68
2021/12/03 20:38:44;;;;;;;7.85;4.47;;;2.10;75.00;;;;;;5040139;28;20029;-68
2021/12/03 20:41:14;;;;;;;6.35;4.93;;;2.10;75.00;;;;;;5040087;28;20532;-69
2021/12/03 20:44:08;;;;;;;11.48;6.72;;;2.10;76.00;;;;;;5041142;28;20037;-68
2021/12/03 21:07:54;;;;;;;8.60;6.03;;;2.20;75.40;;;;;;5039732;28;20029;-69
2021/12/03 21:10:27;;;;;;;5.70;4.15;;;2.30;75.30;;;;;;5040879;28;20045;-68
2021/12/03 21:12:56;;;;;;;8.30;4.95;;;2.30;75.30;;;;;;5038847;28;20045;-68
2021/12/03 21:22:46;;;;;;;6.78;3.83;;;2.40;75.30;;;;;;5037147;28;20040;-68